sensor_id;sensor_type;location;lat;lon;timestamp;pressure;altitude;pressure_sealevel;temperature;humidity
50632;BME280;49583;45.590;-122.498;2022-08-25T00:01:31;100433.43;;;35.54;33.34
50632;BME280;49583;45.590;-122.498;2022-08-25T00:03:44;100431.22;;;35.56;33.46
50632;BME280;49583;45.590;-122.498;2022-08-25T00:06:08;100428.18;;;35.58;33.48
50632;BME280;49583;45.590;-122.498;2022-08-25T00:08:39;100426.80;;;35.60;33.36
50632;BME280;49583;45.590;-122.498;2022-08-25T00:10:46;100426.21;;;35.65;33.35
50632;BME280;49583;45.590;-122.498;2022-08-25T00:13:53;100425.58;;;35.67;32.88
50632;BME280;49583;45.590;-122.498;2022-08-25T00:15:57;100425.89;;;35.69;33.23
50632;BME280;49583;45.590;-122.498;2022-08-25T00:21:47;100421.77;;;35.70;32.39
50632;BME280;49583;45.590;-122.498;2022-08-25T00:24:21;100418.44;;;35.70;32.47
50632;BME280;49583;45.590;-122.498;2022-08-25T00:27:05;100416.86;;;35.72;32.37
50632;BME280;49583;45.590;-122.498;2022-08-25T00:29:24;100422.96;;;35.73;32.41
50632;BME280;49583;45.590;-122.498;2022-08-25T00:31:57;100420.27;;;35.74;32.58
50632;BME280;49583;45.590;-122.498;2022-08-25T00:34:39;100419.20;;;35.75;32.23
50632;BME280;49583;45.590;-122.498;2022-08-25T00:37:06;100416.27;;;35.74;32.25
50632;BME280;49583;45.590;-122.498;2022-08-25T00:39:49;100415.59;;;35.74;32.36
50632;BME280;49583;45.590;-122.498;2022-08-25T00:42:08;100416.09;;;35.76;32.39
50632;BME280;49583;45.590;-122.498;2022-08-25T00:44:42;100418.84;;;35.78;32.38
50632;BME280;49583;45.590;-122.498;2022-08-25T00:47:23;100413.75;;;35.78;32.58
50632;BME280;49583;45.590;-122.498;2022-08-25T00:52:47;100414.05;;;35.77;32.67
50632;BME280;49583;45.590;-122.498;2022-08-25T01:01:30;100417.34;;;35.66;32.51
50632;BME280;49583;45.590;-122.498;2022-08-25T01:04:13;100413.09;;;35.60;32.48
50632;BME280;49583;45.590;-122.498;2022-08-25T01:09:49;100416.18;;;35.42;32.91
50632;BME280;49583;45.590;-122.498;2022-08-25T01:12:13;100416.27;;;35.39;32.86
50632;BME280;49583;45.590;-122.498;2022-08-25T01:14:52;100414.67;;;35.36;32.77
50632;BME280;49583;45.590;-122.498;2022-08-25T01:20:47;100413.75;;;35.27;33.07
50632;BME280;49583;45.590;-122.498;2022-08-25T01:23:19;100412.38;;;35.25;33.09
50632;BME280;49583;45.590;-122.498;2022-08-25T01:25:43;100408.89;;;35.23;33.31
50632;BME280;49583;45.590;-122.498;2022-08-25T01:28:07;100411.13;;;35.21;33.24
50632;BME280;49583;45.590;-122.498;2022-08-25T01:30:48;100411.94;;;35.17;33.32
50632;BME280;49583;45.590;-122.498;2022-08-25T01:33:11;100415.63;;;35.12;33.39
50632;BME280;49583;45.590;-122.498;2022-08-25T01:35:42;100411.88;;;35.09;33.42
50632;BME280;49583;45.590;-122.498;2022-08-25T01:38:12;100410.44;;;35.06;33.57
50632;BME280;49583;45.590;-122.498;2022-08-25T01:40:31;100410.70;;;35.01;33.58
50632;BME280;49583;45.590;-122.498;2022-08-25T01:43:11;100410.23;;;34.97;33.53
50632;BME280;49583;45.590;-122.498;2022-08-25T01:45:35;100410.70;;;34.91;33.57
50632;BME280;49583;45.590;-122.498;2022-08-25T01:48:06;100410.80;;;34.87;33.91
50632;BME280;49583;45.590;-122.498;2022-08-25T01:53:34;100409.08;;;34.76;33.84
50632;BME280;49583;45.590;-122.498;2022-08-25T01:55:44;100410.14;;;34.70;33.89
50632;BME280;49583;45.590;-122.498;2022-08-25T01:58:21;100409.89;;;34.65;33.85
50632;BME280;49583;45.590;-122.498;2022-08-25T02:00:35;100412.77;;;34.56;33.95
50632;BME280;49583;45.590;-122.498;2022-08-25T02:03:14;100415.89;;;34.50;33.94
50632;BME280;49583;45.590;-122.498;2022-08-25T02:05:22;100417.57;;;34.43;33.97
50632;BME280;49583;45.590;-122.498;2022-08-25T02:12:58;100430.70;;;34.25;34.16
50632;BME280;49583;45.590;-122.498;2022-08-25T02:15:08;100432.62;;;34.21;34.18
50632;BME280;49583;45.590;-122.498;2022-08-25T02:17:36;100437.50;;;34.17;34.13
50632;BME280;49583;45.590;-122.498;2022-08-25T02:22:42;100441.29;;;34.04;34.37
50632;BME280;49583;45.590;-122.498;2022-08-25T02:25:02;100441.86;;;33.95;34.41
50632;BME280;49583;45.590;-122.498;2022-08-25T02:28:15;100448.32;;;33.88;34.29
50632;BME280;49583;45.590;-122.498;2022-08-25T02:30:20;100450.16;;;33.83;34.50
50632;BME280;49583;45.590;-122.498;2022-08-25T02:32:40;100449.16;;;33.75;34.51
50632;BME280;49583;45.590;-122.498;2022-08-25T02:34:50;100450.63;;;33.69;34.62
50632;BME280;49583;45.590;-122.498;2022-08-25T02:37:42;100453.14;;;33.63;34.55
50632;BME280;49583;45.590;-122.498;2022-08-25T02:39:49;100453.02;;;33.56;34.59
50632;BME280;49583;45.590;-122.498;2022-08-25T02:41:56;100454.92;;;33.50;34.65
50632;BME280;49583;45.590;-122.498;2022-08-25T02:44:34;100456.98;;;33.43;34.71
50632;BME280;49583;45.590;-122.498;2022-08-25T02:47:45;100456.35;;;33.34;34.92
50632;BME280;49583;45.590;-122.498;2022-08-25T02:53:12;100454.18;;;33.14;34.89
50632;BME280;49583;45.590;-122.498;2022-08-25T02:56:00;100461.28;;;33.05;35.27
50632;BME280;49583;45.590;-122.498;2022-08-25T02:58:10;100460.89;;;32.98;35.25
50632;BME280;49583;45.590;-122.498;2022-08-25T03:00:26;100460.95;;;32.92;35.34
50632;BME280;49583;45.590;-122.498;2022-08-25T03:06:02;100456.73;;;32.70;35.64
50632;BME280;49583;45.590;-122.498;2022-08-25T03:08:12;100457.64;;;32.63;35.83
50632;BME280;49583;45.590;-122.498;2022-08-25T03:10:19;100465.84;;;32.57;35.91
50632;BME280;49583;45.590;-122.498;2022-08-25T03:15:25;100474.05;;;32.35;36.19
50632;BME280;49583;45.590;-122.498;2022-08-25T03:17:38;100478.06;;;32.24;36.39
50632;BME280;49583;45.590;-122.498;2022-08-25T03:19:58;100483.66;;;32.15;36.68
50632;BME280;49583;45.590;-122.498;2022-08-25T03:22:18;100487.55;;;32.08;36.72
50632;BME280;49583;45.590;-122.498;2022-08-25T03:24:32;100489.18;;;31.99;36.97
50632;BME280;49583;45.590;-122.498;2022-08-25T03:26:42;100495.86;;;31.90;37.22
50632;BME280;49583;45.590;-122.498;2022-08-25T03:32:15;100503.98;;;31.70;37.57
50632;BME280;49583;45.590;-122.498;2022-08-25T03:37:43;100515.27;;;31.49;38.08
50632;BME280;49583;45.590;-122.498;2022-08-25T03:39:58;100520.06;;;31.40;38.21
50632;BME280;49583;45.590;-122.498;2022-08-25T03:42:12;100529.29;;;31.33;38.47
50632;BME280;49583;45.590;-122.498;2022-08-25T03:44:39;100528.08;;;31.26;38.66
50632;BME280;49583;45.590;-122.498;2022-08-25T03:47:04;100531.92;;;31.17;38.93
50632;BME280;49583;45.590;-122.498;2022-08-25T03:49:21;100536.94;;;31.12;38.88
50632;BME280;49583;45.590;-122.498;2022-08-25T03:51:42;100539.39;;;31.05;39.08
50632;BME280;49583;45.590;-122.498;2022-08-25T03:53:57;100545.55;;;30.98;39.18
50632;BME280;49583;45.590;-122.498;2022-08-25T03:59:16;100551.20;;;30.82;39.53
50632;BME280;49583;45.590;-122.498;2022-08-25T04:01:40;100554.54;;;30.76;39.63
50632;BME280;49583;45.590;-122.498;2022-08-25T04:03:47;100561.40;;;30.71;39.87
50632;BME280;49583;45.590;-122.498;2022-08-25T04:05:55;100564.69;;;30.67;39.78
50632;BME280;49583;45.590;-122.498;2022-08-25T04:08:06;100566.86;;;30.62;39.71
50632;BME280;49583;45.590;-122.498;2022-08-25T04:10:13;100568.69;;;30.59;39.97
50632;BME280;49583;45.590;-122.498;2022-08-25T04:12:21;100573.13;;;30.55;40.02
50632;BME280;49583;45.590;-122.498;2022-08-25T04:14:31;100575.84;;;30.49;40.14
50632;BME280;49583;45.590;-122.498;2022-08-25T04:16:53;100578.23;;;30.44;40.53
50632;BME280;49583;45.590;-122.498;2022-08-25T04:19:23;100579.77;;;30.39;40.48
50632;BME280;49583;45.590;-122.498;2022-08-25T04:21:41;100587.04;;;30.35;40.44
50632;BME280;49583;45.590;-122.498;2022-08-25T04:24:10;100591.51;;;30.31;40.74
50632;BME280;49583;45.590;-122.498;2022-08-25T04:27:05;100593.33;;;30.27;40.82
50632;BME280;49583;45.590;-122.498;2022-08-25T04:29:31;100592.63;;;30.20;40.91
50632;BME280;49583;45.590;-122.498;2022-08-25T04:31:42;100598.11;;;30.18;41.19
50632;BME280;49583;45.590;-122.498;2022-08-25T04:33:53;100603.59;;;30.16;41.28
50632;BME280;49583;45.590;-122.498;2022-08-25T04:37:41;100606.21;;;30.13;41.34
50632;BME280;49583;45.590;-122.498;2022-08-25T04:39:28;100605.17;;;30.07;41.59
50632;BME280;49583;45.590;-122.498;2022-08-25T04:41:38;100609.55;;;30.03;41.60
50632;BME280;49583;45.590;-122.498;2022-08-25T04:43:49;100611.55;;;30.00;41.67
50632;BME280;49583;45.590;-122.498;2022-08-25T04:45:56;100612.89;;;29.95;41.81
50632;BME280;49583;45.590;-122.498;2022-08-25T04:48:14;100617.14;;;29.90;41.75
50632;BME280;49583;45.590;-122.498;2022-08-25T04:50:20;100619.13;;;29.83;41.75
50632;BME280;49583;45.590;-122.498;2022-08-25T04:52:30;100619.13;;;29.76;42.08
50632;BME280;49583;45.590;-122.498;2022-08-25T04:54:47;100623.55;;;29.71;42.16
50632;BME280;49583;45.590;-122.498;2022-08-25T04:57:00;100622.73;;;29.65;42.28
50632;BME280;49583;45.590;-122.498;2022-08-25T04:59:11;100628.27;;;29.61;42.26
50632;BME280;49583;45.590;-122.498;2022-08-25T05:03:43;100636.70;;;29.52;42.37
50632;BME280;49583;45.590;-122.498;2022-08-25T05:05:51;100640.23;;;29.47;42.51
50632;BME280;49583;45.590;-122.498;2022-08-25T05:07:58;100640.83;;;29.42;42.49
50632;BME280;49583;45.590;-122.498;2022-08-25T05:10:17;100646.12;;;29.36;42.78
50632;BME280;49583;45.590;-122.498;2022-08-25T05:12:29;100649.02;;;29.29;42.77
50632;BME280;49583;45.590;-122.498;2022-08-25T05:15:01;100650.11;;;29.24;43.01
50632;BME280;49583;45.590;-122.498;2022-08-25T05:20:46;100652.06;;;29.12;43.32
50632;BME280;49583;45.590;-122.498;2022-08-25T05:23:45;100650.41;;;29.04;43.35
50632;BME280;49583;45.590;-122.498;2022-08-25T05:26:26;100653.41;;;28.97;43.56
50632;BME280;49583;45.590;-122.498;2022-08-25T05:28:38;100656.85;;;28.91;43.70
50632;BME280;49583;45.590;-122.498;2022-08-25T05:30:47;100658.16;;;28.87;43.79
50632;BME280;49583;45.590;-122.498;2022-08-25T05:33:16;100656.42;;;28.81;43.71
50632;BME280;49583;45.590;-122.498;2022-08-25T05:35:37;100658.05;;;28.73;43.82
50632;BME280;49583;45.590;-122.498;2022-08-25T05:38:04;100660.27;;;28.65;44.03
50632;BME280;49583;45.590;-122.498;2022-08-25T05:40:23;100667.38;;;28.60;44.02
50632;BME280;49583;45.590;-122.498;2022-08-25T05:42:30;100670.85;;;28.55;44.22
50632;BME280;49583;45.590;-122.498;2022-08-25T05:44:56;100671.23;;;28.50;44.12
50632;BME280;49583;45.590;-122.498;2022-08-25T05:47:17;100671.23;;;28.44;44.27
50632;BME280;49583;45.590;-122.498;2022-08-25T05:49:27;100670.59;;;28.38;44.53
50632;BME280;49583;45.590;-122.498;2022-08-25T05:51:37;100680.41;;;28.31;44.71
50632;BME280;49583;45.590;-122.498;2022-08-25T05:53:50;100684.33;;;28.23;44.63
50632;BME280;49583;45.590;-122.498;2022-08-25T05:56:23;100691.08;;;28.16;44.93
50632;BME280;49583;45.590;-122.498;2022-08-25T05:58:49;100695.04;;;28.08;45.01
50632;BME280;49583;45.590;-122.498;2022-08-25T06:01:00;100693.91;;;28.00;45.16
50632;BME280;49583;45.590;-122.498;2022-08-25T06:03:45;100694.79;;;27.93;45.10
50632;BME280;49583;45.590;-122.498;2022-08-25T06:06:06;100696.93;;;27.86;45.14
50632;BME280;49583;45.590;-122.498;2022-08-25T06:08:15;100700.63;;;27.80;45.52
50632;BME280;49583;45.590;-122.498;2022-08-25T06:10:35;100700.99;;;27.74;45.32
50632;BME280;49583;45.590;-122.498;2022-08-25T06:15:36;100701.13;;;27.63;45.77
50632;BME280;49583;45.590;-122.498;2022-08-25T06:17:53;100700.85;;;27.59;46.06
50632;BME280;49583;45.590;-122.498;2022-08-25T06:20:12;100702.38;;;27.53;46.07
50632;BME280;49583;45.590;-122.498;2022-08-25T06:22:30;100698.38;;;27.50;46.23
50632;BME280;49583;45.590;-122.498;2022-08-25T06:24:51;100697.83;;;27.46;46.19
50632;BME280;49583;45.590;-122.498;2022-08-25T06:27:07;100701.80;;;27.43;46.43
50632;BME280;49583;45.590;-122.498;2022-08-25T06:29:18;100704.69;;;27.40;46.43
50632;BME280;49583;45.590;-122.498;2022-08-25T06:31:26;100705.29;;;27.38;46.52
50632;BME280;49583;45.590;-122.498;2022-08-25T06:33:37;100708.42;;;27.34;46.52
50632;BME280;49583;45.590;-122.498;2022-08-25T06:38:16;100711.94;;;27.23;46.60
50632;BME280;49583;45.590;-122.498;2022-08-25T06:40:46;100709.44;;;27.15;46.68
50632;BME280;49583;45.590;-122.498;2022-08-25T06:43:02;100710.06;;;27.10;47.04
50632;BME280;49583;45.590;-122.498;2022-08-25T06:45:21;100714.35;;;27.04;47.02
50632;BME280;49583;45.590;-122.498;2022-08-25T06:47:52;100719.36;;;26.98;47.05
50632;BME280;49583;45.590;-122.498;2022-08-25T06:50:43;100722.95;;;26.94;47.18
50632;BME280;49583;45.590;-122.498;2022-08-25T06:52:53;100724.34;;;26.88;47.42
50632;BME280;49583;45.590;-122.498;2022-08-25T06:55:04;100725.92;;;26.84;47.53
50632;BME280;49583;45.590;-122.498;2022-08-25T06:57:15;100721.86;;;26.79;47.42
50632;BME280;49583;45.590;-122.498;2022-08-25T06:59:25;100722.73;;;26.76;47.39
50632;BME280;49583;45.590;-122.498;2022-08-25T07:01:43;100725.48;;;26.74;47.77
50632;BME280;49583;45.590;-122.498;2022-08-25T07:04:10;100729.08;;;26.70;47.57
50632;BME280;49583;45.590;-122.498;2022-08-25T07:06:19;100731.89;;;26.67;47.85
50632;BME280;49583;45.590;-122.498;2022-08-25T07:09:05;100732.90;;;26.63;47.92
50632;BME280;49583;45.590;-122.498;2022-08-25T07:11:15;100733.73;;;26.58;47.97
50632;BME280;49583;45.590;-122.498;2022-08-25T07:13:21;100734.50;;;26.54;48.00
50632;BME280;49583;45.590;-122.498;2022-08-25T07:15:31;100737.36;;;26.49;47.93
50632;BME280;49583;45.590;-122.498;2022-08-25T07:17:57;100738.54;;;26.43;48.17
50632;BME280;49583;45.590;-122.498;2022-08-25T07:20:09;100742.41;;;26.37;48.12
50632;BME280;49583;45.590;-122.498;2022-08-25T07:22:26;100746.86;;;26.33;48.50
50632;BME280;49583;45.590;-122.498;2022-08-25T07:24:48;100749.80;;;26.26;48.30
50632;BME280;49583;45.590;-122.498;2022-08-25T07:26:54;100750.65;;;26.21;48.51
50632;BME280;49583;45.590;-122.498;2022-08-25T07:29:22;100746.43;;;26.16;48.59
50632;BME280;49583;45.590;-122.498;2022-08-25T07:32:12;100749.23;;;26.11;48.61
50632;BME280;49583;45.590;-122.498;2022-08-25T07:34:18;100749.54;;;26.07;48.63
50632;BME280;49583;45.590;-122.498;2022-08-25T07:36:50;100750.45;;;26.04;48.79
50632;BME280;49583;45.590;-122.498;2022-08-25T07:39:02;100752.27;;;26.01;48.97
50632;BME280;49583;45.590;-122.498;2022-08-25T07:41:26;100754.40;;;25.98;48.96
50632;BME280;49583;45.590;-122.498;2022-08-25T07:43:36;100757.63;;;25.95;48.99
50632;BME280;49583;45.590;-122.498;2022-08-25T07:45:46;100760.99;;;25.91;49.09
50632;BME280;49583;45.590;-122.498;2022-08-25T07:47:55;100758.81;;;25.87;49.05
50632;BME280;49583;45.590;-122.498;2022-08-25T07:50:10;100761.77;;;25.82;49.16
50632;BME280;49583;45.590;-122.498;2022-08-25T07:52:21;100766.08;;;25.77;49.28
50632;BME280;49583;45.590;-122.498;2022-08-25T07:54:37;100766.90;;;25.72;49.37
50632;BME280;49583;45.590;-122.498;2022-08-25T07:56:50;100767.66;;;25.67;49.53
50632;BME280;49583;45.590;-122.498;2022-08-25T07:59:09;100771.91;;;25.63;49.61
50632;BME280;49583;45.590;-122.498;2022-08-25T08:01:23;100772.29;;;25.59;49.70
50632;BME280;49583;45.590;-122.498;2022-08-25T08:03:52;100772.25;;;25.55;49.89
50632;BME280;49583;45.590;-122.498;2022-08-25T08:06:06;100773.16;;;25.51;50.00
50632;BME280;49583;45.590;-122.498;2022-08-25T08:08:21;100771.55;;;25.47;50.15
50632;BME280;49583;45.590;-122.498;2022-08-25T08:10:48;100774.92;;;25.43;50.16
50632;BME280;49583;45.590;-122.498;2022-08-25T08:13:29;100776.02;;;25.35;50.38
50632;BME280;49583;45.590;-122.498;2022-08-25T08:15:42;100781.93;;;25.33;50.20
50632;BME280;49583;45.590;-122.498;2022-08-25T08:17:57;100782.23;;;25.29;50.28
50632;BME280;49583;45.590;-122.498;2022-08-25T08:20:09;100784.53;;;25.23;50.26
50632;BME280;49583;45.590;-122.498;2022-08-25T08:22:19;100787.51;;;25.18;50.49
50632;BME280;49583;45.590;-122.498;2022-08-25T08:24:54;100789.86;;;25.14;50.49
50632;BME280;49583;45.590;-122.498;2022-08-25T08:27:00;100792.11;;;25.09;50.60
50632;BME280;49583;45.590;-122.498;2022-08-25T08:29:10;100794.81;;;25.06;50.70
50632;BME280;49583;45.590;-122.498;2022-08-25T08:31:22;100796.55;;;25.02;50.78
50632;BME280;49583;45.590;-122.498;2022-08-25T08:33:35;100793.20;;;24.99;50.89
50632;BME280;49583;45.590;-122.498;2022-08-25T08:36:06;100795.49;;;24.98;51.02
50632;BME280;49583;45.590;-122.498;2022-08-25T08:38:23;100793.98;;;24.95;51.04
50632;BME280;49583;45.590;-122.498;2022-08-25T08:40:47;100794.30;;;24.90;51.03
50632;BME280;49583;45.590;-122.498;2022-08-25T08:43:20;100795.96;;;24.86;51.15
50632;BME280;49583;45.590;-122.498;2022-08-25T08:46:01;100793.45;;;24.82;51.16
50632;BME280;49583;45.590;-122.498;2022-08-25T08:49:25;100800.38;;;24.78;51.14
50632;BME280;49583;45.590;-122.498;2022-08-25T08:54:15;100802.83;;;24.66;51.30
50632;BME280;49583;45.590;-122.498;2022-08-25T08:56:49;100804.77;;;24.61;51.46
50632;BME280;49583;45.590;-122.498;2022-08-25T08:59:21;100801.04;;;24.55;51.54
50632;BME280;49583;45.590;-122.498;2022-08-25T09:01:46;100806.12;;;24.52;51.61
50632;BME280;49583;45.590;-122.498;2022-08-25T09:04:58;100810.67;;;24.47;51.65
50632;BME280;49583;45.590;-122.498;2022-08-25T09:07:13;100812.98;;;24.42;51.78
50632;BME280;49583;45.590;-122.498;2022-08-25T09:09:34;100812.46;;;24.39;51.85
50632;BME280;49583;45.590;-122.498;2022-08-25T09:12:08;100814.33;;;24.36;51.88
50632;BME280;49583;45.590;-122.498;2022-08-25T09:17:17;100812.98;;;24.28;52.08
50632;BME280;49583;45.590;-122.498;2022-08-25T09:20:03;100815.83;;;24.24;52.20
50632;BME280;49583;45.590;-122.498;2022-08-25T09:25:10;100813.36;;;24.16;52.43
50632;BME280;49583;45.590;-122.498;2022-08-25T09:27:58;100815.27;;;24.11;52.56
50632;BME280;49583;45.590;-122.498;2022-08-25T09:30:11;100817.91;;;24.06;52.63
50632;BME280;49583;45.590;-122.498;2022-08-25T09:32:23;100818.48;;;24.00;52.65
50632;BME280;49583;45.590;-122.498;2022-08-25T09:34:47;100818.76;;;23.94;52.82
50632;BME280;49583;45.590;-122.498;2022-08-25T09:37:01;100822.66;;;23.90;53.09
50632;BME280;49583;45.590;-122.498;2022-08-25T09:39:19;100821.30;;;23.87;53.18
50632;BME280;49583;45.590;-122.498;2022-08-25T09:41:52;100825.26;;;23.84;53.58
50632;BME280;49583;45.590;-122.498;2022-08-25T09:49:31;100832.79;;;23.70;53.98
50632;BME280;49583;45.590;-122.498;2022-08-25T09:54:45;100830.90;;;23.58;54.26
50632;BME280;49583;45.590;-122.498;2022-08-25T09:56:59;100833.98;;;23.54;54.58
50632;BME280;49583;45.590;-122.498;2022-08-25T09:59:32;100841.84;;;23.50;54.55
50632;BME280;49583;45.590;-122.498;2022-08-25T10:01:54;100842.92;;;23.45;54.70
50632;BME280;49583;45.590;-122.498;2022-08-25T10:04:05;100844.55;;;23.40;54.89
50632;BME280;49583;45.590;-122.498;2022-08-25T10:06:46;100843.98;;;23.36;54.90
50632;BME280;49583;45.590;-122.498;2022-08-25T10:08:58;100844.91;;;23.31;54.92
50632;BME280;49583;45.590;-122.498;2022-08-25T10:11:28;100847.80;;;23.28;55.00
50632;BME280;49583;45.590;-122.498;2022-08-25T10:13:47;100848.67;;;23.25;55.01
50632;BME280;49583;45.590;-122.498;2022-08-25T10:16:23;100850.04;;;23.23;55.13
50632;BME280;49583;45.590;-122.498;2022-08-25T10:19:09;100853.70;;;23.19;55.13
50632;BME280;49583;45.590;-122.498;2022-08-25T10:21:16;100857.08;;;23.16;55.27
50632;BME280;49583;45.590;-122.498;2022-08-25T10:23:27;100856.62;;;23.13;55.20
50632;BME280;49583;45.590;-122.498;2022-08-25T10:28:59;100861.98;;;23.07;55.42
50632;BME280;49583;45.590;-122.498;2022-08-25T10:31:37;100864.20;;;23.03;55.58
50632;BME280;49583;45.590;-122.498;2022-08-25T10:34:13;100869.29;;;23.01;55.38
50632;BME280;49583;45.590;-122.498;2022-08-25T10:39:00;100875.89;;;22.96;55.81
50632;BME280;49583;45.590;-122.498;2022-08-25T10:42:12;100879.92;;;22.94;55.70
50632;BME280;49583;45.590;-122.498;2022-08-25T10:44:22;100878.61;;;22.90;55.75
50632;BME280;49583;45.590;-122.498;2022-08-25T10:46:59;100883.09;;;22.86;55.76
50632;BME280;49583;45.590;-122.498;2022-08-25T10:49:31;100882.78;;;22.83;56.10
50632;BME280;49583;45.590;-122.498;2022-08-25T10:52:12;100886.89;;;22.81;55.99
50632;BME280;49583;45.590;-122.498;2022-08-25T10:55:12;100888.16;;;22.78;56.15
50632;BME280;49583;45.590;-122.498;2022-08-25T10:57:59;100893.22;;;22.74;56.28
50632;BME280;49583;45.590;-122.498;2022-08-25T11:00:21;100893.11;;;22.70;56.20
50632;BME280;49583;45.590;-122.498;2022-08-25T11:05:57;100900.00;;;22.63;56.63
50632;BME280;49583;45.590;-122.498;2022-08-25T11:08:41;100904.42;;;22.58;56.59
50632;BME280;49583;45.590;-122.498;2022-08-25T11:10:55;100899.46;;;22.55;56.83
50632;BME280;49583;45.590;-122.498;2022-08-25T11:13:22;100900.27;;;22.52;56.72
50632;BME280;49583;45.590;-122.498;2022-08-25T11:15:54;100901.30;;;22.48;56.80
50632;BME280;49583;45.590;-122.498;2022-08-25T11:18:25;100898.81;;;22.43;56.78
50632;BME280;49583;45.590;-122.498;2022-08-25T11:21:08;100903.42;;;22.41;57.12
50632;BME280;49583;45.590;-122.498;2022-08-25T11:23:49;100901.30;;;22.36;57.16
50632;BME280;49583;45.590;-122.498;2022-08-25T11:26:16;100902.59;;;22.31;57.23
50632;BME280;49583;45.590;-122.498;2022-08-25T11:29:11;100904.05;;;22.28;57.39
50632;BME280;49583;45.590;-122.498;2022-08-25T11:31:22;100908.09;;;22.24;57.45
50632;BME280;49583;45.590;-122.498;2022-08-25T11:33:34;100908.77;;;22.22;57.68
50632;BME280;49583;45.590;-122.498;2022-08-25T11:36:00;100909.16;;;22.20;57.57
50632;BME280;49583;45.590;-122.498;2022-08-25T11:40:48;100908.98;;;22.16;57.70
50632;BME280;49583;45.590;-122.498;2022-08-25T11:43:31;100909.80;;;22.13;57.88
50632;BME280;49583;45.590;-122.498;2022-08-25T11:51:12;100921.79;;;22.04;58.15
50632;BME280;49583;45.590;-122.498;2022-08-25T11:56:51;100923.36;;;21.98;58.25
50632;BME280;49583;45.590;-122.498;2022-08-25T11:59:04;100925.20;;;21.95;58.25
50632;BME280;49583;45.590;-122.498;2022-08-25T12:04:34;100927.59;;;21.88;58.40
50632;BME280;49583;45.590;-122.498;2022-08-25T12:07:28;100931.11;;;21.83;58.56
50632;BME280;49583;45.590;-122.498;2022-08-25T12:13:00;100932.99;;;21.73;58.70
50632;BME280;49583;45.590;-122.498;2022-08-25T12:18:17;100934.31;;;21.64;59.01
50632;BME280;49583;45.590;-122.498;2022-08-25T12:23:44;100941.23;;;21.56;59.30
50632;BME280;49583;45.590;-122.498;2022-08-25T12:29:18;100952.23;;;21.52;59.48
50632;BME280;49583;45.590;-122.498;2022-08-25T12:37:03;100961.45;;;21.47;59.93
50632;BME280;49583;45.590;-122.498;2022-08-25T12:39:30;100960.71;;;21.44;59.74
50632;BME280;49583;45.590;-122.498;2022-08-25T12:41:56;100965.15;;;21.42;59.95
50632;BME280;49583;45.590;-122.498;2022-08-25T12:44:42;100966.56;;;21.38;59.86
50632;BME280;49583;45.590;-122.498;2022-08-25T12:49:52;100967.16;;;21.31;60.07
50632;BME280;49583;45.590;-122.498;2022-08-25T12:52:14;100969.30;;;21.29;60.18
50632;BME280;49583;45.590;-122.498;2022-08-25T12:56:59;100972.55;;;21.24;60.31
50632;BME280;49583;45.590;-122.498;2022-08-25T12:59:19;100972.70;;;21.20;60.40
50632;BME280;49583;45.590;-122.498;2022-08-25T13:04:12;100976.73;;;21.16;60.63
50632;BME280;49583;45.590;-122.498;2022-08-25T13:09:30;100991.57;;;21.08;60.77
50632;BME280;49583;45.590;-122.498;2022-08-25T13:12:13;100994.31;;;21.01;60.74
50632;BME280;49583;45.590;-122.498;2022-08-25T13:14:37;100995.00;;;20.98;60.84
50632;BME280;49583;45.590;-122.498;2022-08-25T13:16:53;100996.48;;;20.95;60.99
50632;BME280;49583;45.590;-122.498;2022-08-25T13:19:05;100994.92;;;20.92;61.05
50632;BME280;49583;45.590;-122.498;2022-08-25T13:21:39;100998.98;;;20.90;61.16
50632;BME280;49583;45.590;-122.498;2022-08-25T13:23:55;101009.24;;;20.88;61.28
50632;BME280;49583;45.590;-122.498;2022-08-25T13:26:20;101012.92;;;20.86;61.27
50632;BME280;49583;45.590;-122.498;2022-08-25T13:28:35;101019.06;;;20.86;61.40
50632;BME280;49583;45.590;-122.498;2022-08-25T13:30:57;101020.98;;;20.84;61.49
50632;BME280;49583;45.590;-122.498;2022-08-25T13:33:18;101022.20;;;20.83;61.57
50632;BME280;49583;45.590;-122.498;2022-08-25T13:35:30;101026.13;;;20.82;61.65
50632;BME280;49583;45.590;-122.498;2022-08-25T13:37:41;101024.70;;;20.82;61.65
50632;BME280;49583;45.590;-122.498;2022-08-25T13:43:10;101028.13;;;20.80;61.82
50632;BME280;49583;45.590;-122.498;2022-08-25T13:45:22;101031.02;;;20.80;61.91
50632;BME280;49583;45.590;-122.498;2022-08-25T13:47:40;101036.41;;;20.79;61.93
50632;BME280;49583;45.590;-122.498;2022-08-25T13:49:52;101041.02;;;20.79;61.97
50632;BME280;49583;45.590;-122.498;2022-08-25T13:52:26;101040.15;;;20.80;62.06
50632;BME280;49583;45.590;-122.498;2022-08-25T13:54:38;101041.73;;;20.80;62.06
50632;BME280;49583;45.590;-122.498;2022-08-25T13:57:36;101045.39;;;20.81;62.04
50632;BME280;49583;45.590;-122.498;2022-08-25T13:59:43;101049.47;;;20.78;62.09
50632;BME280;49583;45.590;-122.498;2022-08-25T14:01:55;101054.63;;;20.80;62.22
50632;BME280;49583;45.590;-122.498;2022-08-25T14:04:28;101053.50;;;20.81;62.24
50632;BME280;49583;45.590;-122.498;2022-08-25T14:06:47;101053.23;;;20.82;62.32
50632;BME280;49583;45.590;-122.498;2022-08-25T14:14:03;101064.95;;;21.33;62.31
50632;BME280;49583;45.590;-122.498;2022-08-25T14:16:22;101067.61;;;21.77;62.26